Terminal Aerodrome Forecast
Issued by NWS Corpus Christi, TX

Home | Current Version | Previous Version | Text Only | Print | Product List | Glossary On
Versions: 1 2 3 4 5 6 7 8 9 10 11 12 13
000
FTUS44 KCRP 040156 AAB
TAFCRP
TAF AMD
KCRP 040156Z 0402/0424 14014KT P6SM FEW020 BKN050
     FM040600 14008KT P6SM SCT015 BKN250
     FM041000 14007KT P6SM BKN015 BKN250
     FM041500 13015KT P6SM SCT025 BKN070
     FM042100 14018G24KT P6SM FEW035 SCT080=

USA.gov is the U.S. government's official web portal to all federal, state and local government web resources and services.